sensor_id;sensor_type;location;lat;lon;timestamp;P1;durP1;ratioP1;P2;durP2;ratioP2
15526;SDS011;7865;50.918;4.510;2022-08-19T00:01:17;22.55;;;16.95;;
15526;SDS011;7865;50.918;4.510;2022-08-19T00:06:32;21.60;;;19.05;;
15526;SDS011;7865;50.918;4.510;2022-08-19T00:11:43;24.83;;;21.80;;
15526;SDS011;7865;50.918;4.510;2022-08-19T00:16:57;27.38;;;22.58;;
15526;SDS011;7865;50.918;4.510;2022-08-19T00:22:04;31.08;;;24.95;;
15526;SDS011;7865;50.918;4.510;2022-08-19T00:27:11;30.45;;;26.10;;
15526;SDS011;7865;50.918;4.510;2022-08-19T00:32:27;35.40;;;28.48;;
15526;SDS011;7865;50.918;4.510;2022-08-19T00:37:31;37.58;;;30.33;;
15526;SDS011;7865;50.918;4.510;2022-08-19T00:42:34;35.63;;;29.55;;
15526;SDS011;7865;50.918;4.510;2022-08-19T00:47:36;39.63;;;30.60;;
15526;SDS011;7865;50.918;4.510;2022-08-19T00:52:40;48.03;;;34.88;;
15526;SDS011;7865;50.918;4.510;2022-08-19T00:57:48;43.92;;;32.53;;
15526;SDS011;7865;50.918;4.510;2022-08-19T01:02:55;50.80;;;38.20;;
15526;SDS011;7865;50.918;4.510;2022-08-19T01:07:59;46.53;;;33.90;;
15526;SDS011;7865;50.918;4.510;2022-08-19T01:13:03;52.38;;;38.38;;
15526;SDS011;7865;50.918;4.510;2022-08-19T01:18:06;54.03;;;38.10;;
15526;SDS011;7865;50.918;4.510;2022-08-19T01:23:11;55.35;;;37.90;;
15526;SDS011;7865;50.918;4.510;2022-08-19T01:28:15;54.83;;;39.63;;
15526;SDS011;7865;50.918;4.510;2022-08-19T01:33:40;65.18;;;41.88;;
15526;SDS011;7865;50.918;4.510;2022-08-19T01:38:43;69.90;;;42.70;;
15526;SDS011;7865;50.918;4.510;2022-08-19T01:43:46;64.63;;;41.72;;
15526;SDS011;7865;50.918;4.510;2022-08-19T01:49:08;64.45;;;41.75;;
15526;SDS011;7865;50.918;4.510;2022-08-19T01:54:11;61.35;;;40.83;;
15526;SDS011;7865;50.918;4.510;2022-08-19T01:59:28;56.70;;;38.15;;
15526;SDS011;7865;50.918;4.510;2022-08-19T02:04:31;55.95;;;36.40;;
15526;SDS011;7865;50.918;4.510;2022-08-19T02:09:33;54.70;;;36.80;;
15526;SDS011;7865;50.918;4.510;2022-08-19T02:14:37;53.23;;;35.00;;
15526;SDS011;7865;50.918;4.510;2022-08-19T02:19:39;52.75;;;35.55;;
15526;SDS011;7865;50.918;4.510;2022-08-19T02:24:41;51.42;;;33.90;;
15526;SDS011;7865;50.918;4.510;2022-08-19T02:29:45;47.97;;;33.45;;
15526;SDS011;7865;50.918;4.510;2022-08-19T02:34:47;44.13;;;33.03;;
15526;SDS011;7865;50.918;4.510;2022-08-19T02:39:49;48.63;;;32.35;;
15526;SDS011;7865;50.918;4.510;2022-08-19T02:44:51;43.78;;;31.58;;
15526;SDS011;7865;50.918;4.510;2022-08-19T02:49:53;37.85;;;28.33;;
15526;SDS011;7865;50.918;4.510;2022-08-19T02:54:55;38.65;;;27.00;;
15526;SDS011;7865;50.918;4.510;2022-08-19T02:59:58;36.88;;;26.55;;
15526;SDS011;7865;50.918;4.510;2022-08-19T03:05:02;34.35;;;24.02;;
15526;SDS011;7865;50.918;4.510;2022-08-19T03:10:04;33.03;;;24.52;;
15526;SDS011;7865;50.918;4.510;2022-08-19T03:15:07;32.83;;;24.75;;
15526;SDS011;7865;50.918;4.510;2022-08-19T03:20:10;31.63;;;22.70;;
15526;SDS011;7865;50.918;4.510;2022-08-19T03:25:15;33.78;;;25.00;;
15526;SDS011;7865;50.918;4.510;2022-08-19T03:30:17;31.55;;;25.00;;
15526;SDS011;7865;50.918;4.510;2022-08-19T03:35:24;36.33;;;23.55;;
15526;SDS011;7865;50.918;4.510;2022-08-19T03:40:26;31.07;;;23.00;;
15526;SDS011;7865;50.918;4.510;2022-08-19T03:45:28;30.05;;;21.45;;
15526;SDS011;7865;50.918;4.510;2022-08-19T03:50:30;34.58;;;20.98;;
15526;SDS011;7865;50.918;4.510;2022-08-19T03:55:32;31.95;;;21.58;;
15526;SDS011;7865;50.918;4.510;2022-08-19T04:00:34;29.27;;;21.13;;
15526;SDS011;7865;50.918;4.510;2022-08-19T04:05:37;29.13;;;22.02;;
15526;SDS011;7865;50.918;4.510;2022-08-19T04:10:39;32.37;;;22.40;;
15526;SDS011;7865;50.918;4.510;2022-08-19T04:15:42;36.78;;;21.70;;
15526;SDS011;7865;50.918;4.510;2022-08-19T04:20:47;30.92;;;21.35;;
15526;SDS011;7865;50.918;4.510;2022-08-19T04:25:50;34.87;;;20.50;;
15526;SDS011;7865;50.918;4.510;2022-08-19T04:30:53;26.23;;;18.75;;
15526;SDS011;7865;50.918;4.510;2022-08-19T04:35:55;26.33;;;18.60;;
15526;SDS011;7865;50.918;4.510;2022-08-19T04:40:59;27.45;;;19.58;;
15526;SDS011;7865;50.918;4.510;2022-08-19T04:46:22;29.20;;;19.75;;
15526;SDS011;7865;50.918;4.510;2022-08-19T04:51:41;30.77;;;20.25;;
15526;SDS011;7865;50.918;4.510;2022-08-19T04:56:45;27.30;;;20.03;;
15526;SDS011;7865;50.918;4.510;2022-08-19T05:01:47;28.63;;;18.73;;
15526;SDS011;7865;50.918;4.510;2022-08-19T05:06:51;29.10;;;17.80;;
15526;SDS011;7865;50.918;4.510;2022-08-19T05:12:02;25.47;;;17.27;;
15526;SDS011;7865;50.918;4.510;2022-08-19T05:17:04;30.10;;;17.53;;
15526;SDS011;7865;50.918;4.510;2022-08-19T05:22:26;24.45;;;16.35;;
15526;SDS011;7865;50.918;4.510;2022-08-19T05:27:36;21.67;;;14.60;;
15526;SDS011;7865;50.918;4.510;2022-08-19T05:32:39;29.45;;;14.32;;
15526;SDS011;7865;50.918;4.510;2022-08-19T05:37:41;25.05;;;13.18;;
15526;SDS011;7865;50.918;4.510;2022-08-19T05:42:43;17.08;;;11.80;;
15526;SDS011;7865;50.918;4.510;2022-08-19T05:47:55;17.05;;;10.90;;
15526;SDS011;7865;50.918;4.510;2022-08-19T05:52:57;20.30;;;10.80;;
15526;SDS011;7865;50.918;4.510;2022-08-19T05:58:00;14.13;;;9.45;;
15526;SDS011;7865;50.918;4.510;2022-08-19T06:03:03;10.95;;;8.68;;
15526;SDS011;7865;50.918;4.510;2022-08-19T06:08:13;15.27;;;8.88;;
15526;SDS011;7865;50.918;4.510;2022-08-19T06:13:15;18.63;;;9.45;;
15526;SDS011;7865;50.918;4.510;2022-08-19T06:18:17;16.08;;;9.45;;
15526;SDS011;7865;50.918;4.510;2022-08-19T06:23:19;14.60;;;9.85;;
15526;SDS011;7865;50.918;4.510;2022-08-19T06:28:24;15.38;;;9.18;;
15526;SDS011;7865;50.918;4.510;2022-08-19T06:33:27;13.68;;;9.52;;
15526;SDS011;7865;50.918;4.510;2022-08-19T06:38:31;14.13;;;8.40;;
15526;SDS011;7865;50.918;4.510;2022-08-19T06:43:34;22.70;;;9.15;;
15526;SDS011;7865;50.918;4.510;2022-08-19T06:48:42;13.10;;;8.73;;
15526;SDS011;7865;50.918;4.510;2022-08-19T06:53:47;10.73;;;7.55;;
15526;SDS011;7865;50.918;4.510;2022-08-19T06:58:55;12.95;;;8.13;;
15526;SDS011;7865;50.918;4.510;2022-08-19T07:03:58;13.60;;;7.68;;
15526;SDS011;7865;50.918;4.510;2022-08-19T07:09:00;11.55;;;7.55;;
15526;SDS011;7865;50.918;4.510;2022-08-19T07:14:03;10.05;;;6.90;;
15526;SDS011;7865;50.918;4.510;2022-08-19T07:19:07;14.02;;;6.53;;
15526;SDS011;7865;50.918;4.510;2022-08-19T07:24:16;13.88;;;7.55;;
15526;SDS011;7865;50.918;4.510;2022-08-19T07:29:19;12.10;;;7.97;;
15526;SDS011;7865;50.918;4.510;2022-08-19T07:34:29;14.95;;;7.53;;
15526;SDS011;7865;50.918;4.510;2022-08-19T07:39:33;14.77;;;7.15;;
15526;SDS011;7865;50.918;4.510;2022-08-19T07:44:37;9.68;;;5.88;;
15526;SDS011;7865;50.918;4.510;2022-08-19T07:49:41;14.48;;;5.78;;
15526;SDS011;7865;50.918;4.510;2022-08-19T07:54:43;9.13;;;6.35;;
15526;SDS011;7865;50.918;4.510;2022-08-19T07:59:45;8.10;;;5.25;;
15526;SDS011;7865;50.918;4.510;2022-08-19T08:04:47;7.35;;;5.28;;
15526;SDS011;7865;50.918;4.510;2022-08-19T08:10:08;8.23;;;4.97;;
15526;SDS011;7865;50.918;4.510;2022-08-19T08:15:22;6.28;;;4.68;;
15526;SDS011;7865;50.918;4.510;2022-08-19T08:20:25;8.25;;;4.63;;
15526;SDS011;7865;50.918;4.510;2022-08-19T08:25:27;5.45;;;3.83;;
15526;SDS011;7865;50.918;4.510;2022-08-19T08:30:34;7.45;;;4.80;;
15526;SDS011;7865;50.918;4.510;2022-08-19T08:35:39;6.82;;;4.10;;
15526;SDS011;7865;50.918;4.510;2022-08-19T08:40:48;7.35;;;4.72;;
15526;SDS011;7865;50.918;4.510;2022-08-19T08:46:08;7.70;;;4.70;;
15526;SDS011;7865;50.918;4.510;2022-08-19T08:51:32;9.43;;;4.65;;
15526;SDS011;7865;50.918;4.510;2022-08-19T08:56:45;5.80;;;4.38;;
15526;SDS011;7865;50.918;4.510;2022-08-19T09:01:52;8.77;;;4.88;;
15526;SDS011;7865;50.918;4.510;2022-08-19T09:06:55;8.60;;;4.60;;
15526;SDS011;7865;50.918;4.510;2022-08-19T09:17:43;11.07;;;5.55;;
15526;SDS011;7865;50.918;4.510;2022-08-19T09:22:50;9.20;;;5.88;;
15526;SDS011;7865;50.918;4.510;2022-08-19T09:27:53;9.25;;;4.75;;
15526;SDS011;7865;50.918;4.510;2022-08-19T09:33:03;7.88;;;5.53;;
15526;SDS011;7865;50.918;4.510;2022-08-19T09:38:06;7.90;;;5.47;;
15526;SDS011;7865;50.918;4.510;2022-08-19T09:43:10;6.93;;;5.50;;
15526;SDS011;7865;50.918;4.510;2022-08-19T09:48:14;8.68;;;5.00;;
15526;SDS011;7865;50.918;4.510;2022-08-19T09:53:24;13.50;;;6.88;;
15526;SDS011;7865;50.918;4.510;2022-08-19T09:58:26;10.93;;;5.45;;
15526;SDS011;7865;50.918;4.510;2022-08-19T10:03:29;10.30;;;6.07;;
15526;SDS011;7865;50.918;4.510;2022-08-19T10:08:35;9.68;;;4.22;;
15526;SDS011;7865;50.918;4.510;2022-08-19T10:13:38;6.70;;;4.72;;
15526;SDS011;7865;50.918;4.510;2022-08-19T10:18:40;8.20;;;4.70;;
15526;SDS011;7865;50.918;4.510;2022-08-19T10:23:52;7.97;;;4.55;;
15526;SDS011;7865;50.918;4.510;2022-08-19T10:28:56;10.25;;;5.22;;
15526;SDS011;7865;50.918;4.510;2022-08-19T10:34:00;6.55;;;4.45;;
15526;SDS011;7865;50.918;4.510;2022-08-19T10:39:04;5.32;;;3.70;;
15526;SDS011;7865;50.918;4.510;2022-08-19T10:44:10;5.35;;;3.70;;
15526;SDS011;7865;50.918;4.510;2022-08-19T10:49:14;5.20;;;3.63;;
15526;SDS011;7865;50.918;4.510;2022-08-19T10:54:18;5.15;;;3.90;;
15526;SDS011;7865;50.918;4.510;2022-08-19T10:59:31;4.75;;;3.65;;
15526;SDS011;7865;50.918;4.510;2022-08-19T11:04:37;4.60;;;3.30;;
15526;SDS011;7865;50.918;4.510;2022-08-19T11:09:42;5.32;;;3.50;;
15526;SDS011;7865;50.918;4.510;2022-08-19T11:14:44;4.53;;;3.67;;
15526;SDS011;7865;50.918;4.510;2022-08-19T11:19:46;6.47;;;4.45;;
15526;SDS011;7865;50.918;4.510;2022-08-19T11:24:50;6.60;;;4.47;;
15526;SDS011;7865;50.918;4.510;2022-08-19T11:29:52;7.90;;;4.25;;
15526;SDS011;7865;50.918;4.510;2022-08-19T11:34:54;7.40;;;4.93;;
15526;SDS011;7865;50.918;4.510;2022-08-19T11:39:56;4.78;;;3.95;;
15526;SDS011;7865;50.918;4.510;2022-08-19T11:44:58;3.25;;;2.90;;
15526;SDS011;7865;50.918;4.510;2022-08-19T11:50:00;4.50;;;4.07;;
15526;SDS011;7865;50.918;4.510;2022-08-19T11:55:02;5.15;;;3.50;;
15526;SDS011;7865;50.918;4.510;2022-08-19T12:00:05;4.85;;;3.78;;
15526;SDS011;7865;50.918;4.510;2022-08-19T12:05:08;4.95;;;4.32;;
15526;SDS011;7865;50.918;4.510;2022-08-19T12:10:13;5.25;;;4.60;;
15526;SDS011;7865;50.918;4.510;2022-08-19T12:15:20;5.68;;;5.15;;
15526;SDS011;7865;50.918;4.510;2022-08-19T12:20:23;8.95;;;5.95;;
15526;SDS011;7865;50.918;4.510;2022-08-19T12:25:25;6.68;;;5.80;;
15526;SDS011;7865;50.918;4.510;2022-08-19T12:30:27;6.75;;;6.15;;
15526;SDS011;7865;50.918;4.510;2022-08-19T12:35:29;6.38;;;5.82;;
15526;SDS011;7865;50.918;4.510;2022-08-19T12:40:32;6.72;;;5.82;;
15526;SDS011;7865;50.918;4.510;2022-08-19T12:45:34;5.95;;;5.45;;
15526;SDS011;7865;50.918;4.510;2022-08-19T12:50:41;7.00;;;4.63;;
15526;SDS011;7865;50.918;4.510;2022-08-19T12:55:47;6.38;;;4.72;;
15526;SDS011;7865;50.918;4.510;2022-08-19T13:00:51;4.32;;;3.88;;
15526;SDS011;7865;50.918;4.510;2022-08-19T13:06:28;5.88;;;3.67;;
15526;SDS011;7865;50.918;4.510;2022-08-19T13:11:31;4.22;;;3.83;;
15526;SDS011;7865;50.918;4.510;2022-08-19T13:16:36;3.22;;;2.92;;
15526;SDS011;7865;50.918;4.510;2022-08-19T13:21:39;3.65;;;2.80;;
15526;SDS011;7865;50.918;4.510;2022-08-19T13:26:44;3.10;;;2.78;;
15526;SDS011;7865;50.918;4.510;2022-08-19T13:31:46;3.08;;;2.28;;
15526;SDS011;7865;50.918;4.510;2022-08-19T13:37:06;2.88;;;2.55;;
15526;SDS011;7865;50.918;4.510;2022-08-19T13:42:09;2.28;;;2.08;;
15526;SDS011;7865;50.918;4.510;2022-08-19T13:47:12;2.72;;;2.05;;
15526;SDS011;7865;50.918;4.510;2022-08-19T13:52:16;6.05;;;2.13;;
15526;SDS011;7865;50.918;4.510;2022-08-19T13:57:18;1.73;;;1.63;;
15526;SDS011;7865;50.918;4.510;2022-08-19T14:02:20;4.75;;;2.47;;
15526;SDS011;7865;50.918;4.510;2022-08-19T14:07:22;4.47;;;1.77;;
15526;SDS011;7865;50.918;4.510;2022-08-19T14:12:25;2.38;;;1.30;;
15526;SDS011;7865;50.918;4.510;2022-08-19T14:17:29;3.63;;;1.70;;
15526;SDS011;7865;50.918;4.510;2022-08-19T14:22:31;2.50;;;1.70;;
15526;SDS011;7865;50.918;4.510;2022-08-19T14:27:34;2.70;;;1.80;;
15526;SDS011;7865;50.918;4.510;2022-08-19T14:32:37;2.80;;;1.75;;
15526;SDS011;7865;50.918;4.510;2022-08-19T14:37:39;3.65;;;2.08;;
15526;SDS011;7865;50.918;4.510;2022-08-19T14:42:58;6.20;;;2.35;;
15526;SDS011;7865;50.918;4.510;2022-08-19T14:48:05;4.07;;;2.55;;
15526;SDS011;7865;50.918;4.510;2022-08-19T14:53:19;4.75;;;2.28;;
15526;SDS011;7865;50.918;4.510;2022-08-19T14:58:22;4.68;;;2.00;;
15526;SDS011;7865;50.918;4.510;2022-08-19T15:03:30;2.33;;;1.58;;
15526;SDS011;7865;50.918;4.510;2022-08-19T15:08:34;3.78;;;1.30;;
15526;SDS011;7865;50.918;4.510;2022-08-19T15:13:38;2.70;;;1.40;;
15526;SDS011;7865;50.918;4.510;2022-08-19T15:18:41;2.05;;;1.27;;
15526;SDS011;7865;50.918;4.510;2022-08-19T15:23:48;1.48;;;0.98;;
15526;SDS011;7865;50.918;4.510;2022-08-19T15:28:51;1.02;;;0.57;;
15526;SDS011;7865;50.918;4.510;2022-08-19T15:33:53;0.60;;;0.60;;
15526;SDS011;7865;50.918;4.510;2022-08-19T15:39:00;2.13;;;0.70;;
15526;SDS011;7865;50.918;4.510;2022-08-19T15:44:03;1.98;;;0.70;;
15526;SDS011;7865;50.918;4.510;2022-08-19T15:49:11;3.03;;;0.85;;
15526;SDS011;7865;50.918;4.510;2022-08-19T15:54:18;1.58;;;0.75;;
15526;SDS011;7865;50.918;4.510;2022-08-19T15:59:22;2.78;;;0.80;;
15526;SDS011;7865;50.918;4.510;2022-08-19T16:04:48;1.48;;;0.95;;
15526;SDS011;7865;50.918;4.510;2022-08-19T16:10:10;2.65;;;1.08;;
15526;SDS011;7865;50.918;4.510;2022-08-19T16:15:28;0.95;;;0.90;;
15526;SDS011;7865;50.918;4.510;2022-08-19T16:20:31;1.90;;;1.30;;
15526;SDS011;7865;50.918;4.510;2022-08-19T16:25:36;2.00;;;1.17;;
15526;SDS011;7865;50.918;4.510;2022-08-19T16:30:38;2.10;;;1.40;;
15526;SDS011;7865;50.918;4.510;2022-08-19T16:35:41;1.20;;;1.10;;
15526;SDS011;7865;50.918;4.510;2022-08-19T16:40:43;5.53;;;1.95;;
15526;SDS011;7865;50.918;4.510;2022-08-19T16:45:47;2.83;;;1.80;;
15526;SDS011;7865;50.918;4.510;2022-08-19T16:50:53;2.80;;;1.90;;
15526;SDS011;7865;50.918;4.510;2022-08-19T16:56:00;5.22;;;2.42;;
15526;SDS011;7865;50.918;4.510;2022-08-19T17:01:03;2.55;;;2.20;;
15526;SDS011;7865;50.918;4.510;2022-08-19T17:06:14;3.92;;;1.75;;
15526;SDS011;7865;50.918;4.510;2022-08-19T17:11:22;2.53;;;1.70;;
15526;SDS011;7865;50.918;4.510;2022-08-19T17:16:25;3.10;;;2.00;;
15526;SDS011;7865;50.918;4.510;2022-08-19T17:21:30;3.42;;;1.52;;
15526;SDS011;7865;50.918;4.510;2022-08-19T17:26:36;2.70;;;1.42;;
15526;SDS011;7865;50.918;4.510;2022-08-19T17:31:43;2.15;;;1.50;;
15526;SDS011;7865;50.918;4.510;2022-08-19T17:36:48;2.65;;;1.60;;
15526;SDS011;7865;50.918;4.510;2022-08-19T17:41:50;2.25;;;1.48;;
15526;SDS011;7865;50.918;4.510;2022-08-19T17:46:52;3.00;;;1.65;;
15526;SDS011;7865;50.918;4.510;2022-08-19T17:51:54;2.05;;;1.45;;
15526;SDS011;7865;50.918;4.510;2022-08-19T17:56:58;3.17;;;2.15;;
15526;SDS011;7865;50.918;4.510;2022-08-19T18:02:00;4.63;;;2.00;;
15526;SDS011;7865;50.918;4.510;2022-08-19T18:07:02;3.50;;;2.28;;
15526;SDS011;7865;50.918;4.510;2022-08-19T18:12:05;5.25;;;2.20;;
15526;SDS011;7865;50.918;4.510;2022-08-19T18:17:09;6.28;;;2.78;;
15526;SDS011;7865;50.918;4.510;2022-08-19T18:27:52;8.32;;;4.22;;
15526;SDS011;7865;50.918;4.510;2022-08-19T18:32:56;6.38;;;4.15;;
15526;SDS011;7865;50.918;4.510;2022-08-19T18:38:01;8.00;;;4.45;;
15526;SDS011;7865;50.918;4.510;2022-08-19T18:43:26;18.00;;;7.28;;
15526;SDS011;7865;50.918;4.510;2022-08-19T18:48:28;11.82;;;5.72;;
15526;SDS011;7865;50.918;4.510;2022-08-19T18:53:49;9.38;;;5.05;;
15526;SDS011;7865;50.918;4.510;2022-08-19T18:58:51;8.38;;;5.25;;
15526;SDS011;7865;50.918;4.510;2022-08-19T19:03:54;8.57;;;5.45;;
15526;SDS011;7865;50.918;4.510;2022-08-19T19:08:57;13.00;;;6.25;;
15526;SDS011;7865;50.918;4.510;2022-08-19T19:14:07;10.88;;;6.60;;
15526;SDS011;7865;50.918;4.510;2022-08-19T19:19:33;10.95;;;5.63;;
15526;SDS011;7865;50.918;4.510;2022-08-19T19:24:36;9.75;;;5.30;;
15526;SDS011;7865;50.918;4.510;2022-08-19T19:29:39;12.35;;;5.97;;
15526;SDS011;7865;50.918;4.510;2022-08-19T19:34:42;11.73;;;6.20;;
15526;SDS011;7865;50.918;4.510;2022-08-19T19:39:46;6.15;;;4.95;;
15526;SDS011;7865;50.918;4.510;2022-08-19T19:44:52;8.13;;;4.70;;
15526;SDS011;7865;50.918;4.510;2022-08-19T19:49:55;4.20;;;3.80;;
15526;SDS011;7865;50.918;4.510;2022-08-19T19:55:14;4.97;;;3.40;;
15526;SDS011;7865;50.918;4.510;2022-08-19T20:00:20;9.20;;;3.83;;
15526;SDS011;7865;50.918;4.510;2022-08-19T20:05:23;6.47;;;3.58;;
15526;SDS011;7865;50.918;4.510;2022-08-19T20:10:25;6.50;;;3.35;;
15526;SDS011;7865;50.918;4.510;2022-08-19T20:15:27;9.88;;;4.00;;
15526;SDS011;7865;50.918;4.510;2022-08-19T20:20:30;6.85;;;3.63;;
15526;SDS011;7865;50.918;4.510;2022-08-19T20:25:32;9.32;;;3.50;;
15526;SDS011;7865;50.918;4.510;2022-08-19T20:30:34;9.50;;;3.10;;
15526;SDS011;7865;50.918;4.510;2022-08-19T20:35:41;7.65;;;3.58;;
15526;SDS011;7865;50.918;4.510;2022-08-19T20:40:43;7.55;;;3.20;;
15526;SDS011;7865;50.918;4.510;2022-08-19T20:45:45;4.38;;;2.90;;
15526;SDS011;7865;50.918;4.510;2022-08-19T20:50:47;8.15;;;3.30;;
15526;SDS011;7865;50.918;4.510;2022-08-19T20:55:50;3.58;;;2.00;;
15526;SDS011;7865;50.918;4.510;2022-08-19T21:00:53;3.20;;;1.92;;
15526;SDS011;7865;50.918;4.510;2022-08-19T21:05:58;2.65;;;1.73;;
15526;SDS011;7865;50.918;4.510;2022-08-19T21:11:01;3.10;;;2.17;;
15526;SDS011;7865;50.918;4.510;2022-08-19T21:16:03;4.55;;;2.40;;
15526;SDS011;7865;50.918;4.510;2022-08-19T21:21:09;6.88;;;2.85;;
15526;SDS011;7865;50.918;4.510;2022-08-19T21:26:12;11.20;;;3.60;;
15526;SDS011;7865;50.918;4.510;2022-08-19T21:31:14;8.80;;;4.10;;
15526;SDS011;7865;50.918;4.510;2022-08-19T21:36:17;5.60;;;3.83;;
15526;SDS011;7865;50.918;4.510;2022-08-19T21:41:19;8.48;;;4.13;;
15526;SDS011;7865;50.918;4.510;2022-08-19T21:46:20;9.73;;;4.20;;
15526;SDS011;7865;50.918;4.510;2022-08-19T21:51:23;5.32;;;4.13;;
15526;SDS011;7865;50.918;4.510;2022-08-19T21:56:26;7.65;;;4.95;;
15526;SDS011;7865;50.918;4.510;2022-08-19T22:01:28;6.55;;;4.93;;
15526;SDS011;7865;50.918;4.510;2022-08-19T22:06:30;10.40;;;5.28;;
15526;SDS011;7865;50.918;4.510;2022-08-19T22:11:33;10.30;;;4.82;;
15526;SDS011;7865;50.918;4.510;2022-08-19T22:16:36;13.82;;;5.45;;
15526;SDS011;7865;50.918;4.510;2022-08-19T22:21:39;8.45;;;4.90;;
15526;SDS011;7865;50.918;4.510;2022-08-19T22:26:41;7.75;;;5.05;;
15526;SDS011;7865;50.918;4.510;2022-08-19T22:31:43;10.80;;;5.50;;
15526;SDS011;7865;50.918;4.510;2022-08-19T22:36:55;8.27;;;5.60;;
15526;SDS011;7865;50.918;4.510;2022-08-19T22:41:57;11.25;;;5.82;;
15526;SDS011;7865;50.918;4.510;2022-08-19T22:46:59;8.98;;;5.55;;
15526;SDS011;7865;50.918;4.510;2022-08-19T22:52:02;12.77;;;5.75;;
15526;SDS011;7865;50.918;4.510;2022-08-19T22:57:20;10.52;;;5.85;;
15526;SDS011;7865;50.918;4.510;2022-08-19T23:02:26;9.18;;;7.00;;
15526;SDS011;7865;50.918;4.510;2022-08-19T23:07:30;10.13;;;6.70;;
15526;SDS011;7865;50.918;4.510;2022-08-19T23:12:33;12.23;;;7.65;;
15526;SDS011;7865;50.918;4.510;2022-08-19T23:17:41;10.18;;;7.20;;
15526;SDS011;7865;50.918;4.510;2022-08-19T23:22:44;11.77;;;8.63;;
15526;SDS011;7865;50.918;4.510;2022-08-19T23:27:49;12.20;;;8.60;;
15526;SDS011;7865;50.918;4.510;2022-08-19T23:33:15;15.27;;;9.13;;
15526;SDS011;7865;50.918;4.510;2022-08-19T23:38:49;14.57;;;10.35;;
15526;SDS011;7865;50.918;4.510;2022-08-19T23:43:52;11.30;;;9.13;;
15526;SDS011;7865;50.918;4.510;2022-08-19T23:48:55;18.05;;;8.45;;
15526;SDS011;7865;50.918;4.510;2022-08-19T23:53:58;13.60;;;10.20;;
15526;SDS011;7865;50.918;4.510;2022-08-19T23:59:00;16.50;;;10.77;;
